createdAt,value
2022-10-15T00:04:19.357Z,13.40
2022-10-15T00:09:22.686Z,13.40
2022-10-15T00:14:25.999Z,13.40
2022-10-15T00:19:30.678Z,13.40
2022-10-15T00:24:33.983Z,13.40
2022-10-15T00:29:37.289Z,13.50
2022-10-15T00:34:42.158Z,13.60
2022-10-15T00:39:45.569Z,13.60
2022-10-15T00:44:52.943Z,13.50
2022-10-15T00:50:02.350Z,13.50
2022-10-15T00:55:09.374Z,13.40
2022-10-15T01:00:16.278Z,13.40
2022-10-15T01:05:21.220Z,13.30
2022-10-15T01:10:28.951Z,13.20
2022-10-15T01:15:41.140Z,13.10
2022-10-15T01:21:01.451Z,13.10
2022-10-15T01:26:26.172Z,13.10
2022-10-15T01:31:38.816Z,13.20
2022-10-15T01:36:52.234Z,13.30
2022-10-15T01:42:01.419Z,13.20
2022-10-15T01:47:11.169Z,16.60
2022-10-15T01:52:19.115Z,16.70
2022-10-15T01:57:25.674Z,13.10
2022-10-15T02:02:30.891Z,13.10
2022-10-15T02:07:43.574Z,12.90
2022-10-15T02:12:57.904Z,12.90
2022-10-15T02:18:08.210Z,12.80
2022-10-15T02:23:16.775Z,12.80
2022-10-15T02:28:21.019Z,12.80
2022-10-15T02:33:27.504Z,12.80
2022-10-15T02:38:34.116Z,12.80
2022-10-15T02:43:38.512Z,12.70
2022-10-15T02:48:43.153Z,12.80
2022-10-15T02:53:46.522Z,12.70
2022-10-15T02:58:50.142Z,12.70
2022-10-15T03:03:57.097Z,12.80
2022-10-15T03:09:01.200Z,12.70
2022-10-15T03:14:06.465Z,12.80
2022-10-15T03:19:12.368Z,12.70
2022-10-15T03:24:16.875Z,12.80
2022-10-15T03:29:20.441Z,12.70
2022-10-15T03:34:33.073Z,12.70
2022-10-15T03:39:37.380Z,12.70
2022-10-15T03:44:43.149Z,12.70
2022-10-15T03:49:51.249Z,12.70
2022-10-15T03:54:56.196Z,12.70
2022-10-15T04:00:01.626Z,12.70
2022-10-15T04:05:16.987Z,12.70
2022-10-15T04:10:27.676Z,12.70
2022-10-15T04:15:31.002Z,12.70
2022-10-15T04:20:42.708Z,12.70
2022-10-15T04:25:51.618Z,12.70
2022-10-15T04:30:58.549Z,12.70
2022-10-15T04:36:06.846Z,12.70
2022-10-15T04:41:27.534Z,12.70
2022-10-15T04:46:38.456Z,12.70
2022-10-15T04:52:01.198Z,12.70
2022-10-15T04:57:07.542Z,12.80
2022-10-15T05:02:12.593Z,12.70
2022-10-15T05:07:18.151Z,12.70
2022-10-15T05:12:23.506Z,12.80
2022-10-15T05:17:27.259Z,12.80
2022-10-15T05:22:33.230Z,12.80
2022-10-15T05:27:38.432Z,12.80
2022-10-15T05:32:42.677Z,12.80
2022-10-15T05:37:50.318Z,12.80
2022-10-15T05:48:02.878Z,12.80
2022-10-15T05:53:08.356Z,10.00
2022-10-15T05:58:22.801Z,12.80
2022-10-15T06:03:26.782Z,12.90
2022-10-15T06:08:32.832Z,12.90
2022-10-15T06:13:36.316Z,12.90
2022-10-15T06:18:40.638Z,13.00
2022-10-15T06:23:45.686Z,13.10
2022-10-15T06:28:49.076Z,13.10
2022-10-15T06:33:52.409Z,13.10
2022-10-15T06:38:57.568Z,13.20
2022-10-15T06:44:00.914Z,13.20
2022-10-15T06:49:04.723Z,13.20
2022-10-15T06:54:11.757Z,13.30
2022-10-15T06:59:15.011Z,13.30
2022-10-15T07:04:18.261Z,12.30
2022-10-15T07:09:22.888Z,13.40
2022-10-15T07:14:26.132Z,13.40
2022-10-15T07:19:29.596Z,14.00
2022-10-15T07:24:34.321Z,13.40
2022-10-15T07:29:37.719Z,13.50
2022-10-15T07:34:40.969Z,11.30
2022-10-15T07:39:45.626Z,13.70
2022-10-15T07:44:48.890Z,13.70
2022-10-15T07:49:52.778Z,13.80
2022-10-15T07:54:57.388Z,14.00
2022-10-15T08:00:00.668Z,14.10
2022-10-15T08:05:04.078Z,11.80
2022-10-15T08:10:09.835Z,14.30
2022-10-15T08:15:13.121Z,14.40
2022-10-15T08:20:16.484Z,14.40
2022-10-15T08:25:21.175Z,14.50
2022-10-15T08:30:24.484Z,14.50
2022-10-15T08:35:27.993Z,14.50
2022-10-15T08:40:32.948Z,14.60
2022-10-15T08:45:45.080Z,14.60
2022-10-15T08:50:54.120Z,14.60
2022-10-15T08:56:05.211Z,14.70
2022-10-15T09:01:13.270Z,14.70
2022-10-15T09:06:23.594Z,14.90
2022-10-15T09:11:43.550Z,14.90
2022-10-15T09:16:50.180Z,14.90
2022-10-15T09:21:54.022Z,15.00
2022-10-15T09:27:07.897Z,17.70
2022-10-15T09:32:17.898Z,14.90
2022-10-15T09:37:29.012Z,15.10
2022-10-15T09:42:39.897Z,15.20
2022-10-15T09:47:45.507Z,15.20
2022-10-15T09:53:05.557Z,15.10
2022-10-15T09:58:15.493Z,15.00
2022-10-15T10:03:18.799Z,15.10
2022-10-15T10:08:25.384Z,15.10
2022-10-15T10:13:33.226Z,15.10
2022-10-15T10:18:37.681Z,15.20
2022-10-15T10:23:41.720Z,15.20
2022-10-15T10:28:56.656Z,15.20
2022-10-15T10:34:04.781Z,15.30
2022-10-15T10:39:22.524Z,15.40
2022-10-15T10:44:32.071Z,15.40
2022-10-15T10:49:37.747Z,15.50
2022-10-15T10:54:43.984Z,15.50
2022-10-15T10:59:53.580Z,15.50
2022-10-15T11:04:58.227Z,15.60
2022-10-15T11:10:09.029Z,15.70
2022-10-15T11:15:25.666Z,18.10
2022-10-15T11:20:49.746Z,15.60
2022-10-15T11:26:06.894Z,15.70
2022-10-15T11:31:20.954Z,15.60
2022-10-15T11:36:40.285Z,15.60
2022-10-15T11:41:56.811Z,15.60
2022-10-15T11:47:23.377Z,15.70
2022-10-15T11:52:48.370Z,15.70
2022-10-15T11:57:55.172Z,15.80
2022-10-15T12:03:04.351Z,15.90
2022-10-15T12:08:10.810Z,16.40
2022-10-15T12:13:27.725Z,16.50
2022-10-15T12:18:36.315Z,16.90
2022-10-15T12:23:44.117Z,17.30
2022-10-15T12:28:51.064Z,17.50
2022-10-15T12:33:58.017Z,17.50
2022-10-15T12:39:11.462Z,17.30
2022-10-15T12:44:27.724Z,17.30
2022-10-15T12:50:03.704Z,17.40
2022-10-15T12:55:23.602Z,17.70
2022-10-15T13:00:42.713Z,17.70
2022-10-15T13:05:50.170Z,17.30
2022-10-15T13:11:00.504Z,16.90
2022-10-15T13:16:10.103Z,16.80
2022-10-15T13:21:14.753Z,16.70
2022-10-15T13:26:21.453Z,16.80
2022-10-15T13:31:29.416Z,16.70
2022-10-15T13:36:37.082Z,16.60
2022-10-15T13:41:41.100Z,16.60
2022-10-15T13:46:44.368Z,16.70
2022-10-15T13:51:50.622Z,16.80
2022-10-15T13:56:57.936Z,16.60
2022-10-15T14:02:04.404Z,16.50
2022-10-15T14:07:23.873Z,17.10
2022-10-15T14:12:27.314Z,20.70
2022-10-15T14:17:30.638Z,20.90
2022-10-15T14:22:36.293Z,19.50
2022-10-15T14:27:39.611Z,18.80
2022-10-15T14:32:48.026Z,18.30
2022-10-15T14:38:01.704Z,18.40
2022-10-15T14:43:06.973Z,19.50
2022-10-15T14:48:12.901Z,20.10
2022-10-15T14:53:22.357Z,19.50
2022-10-15T14:58:27.973Z,19.40
2022-10-15T15:03:39.620Z,18.50
2022-10-15T15:08:44.457Z,19.00
2022-10-15T15:13:48.188Z,19.90
2022-10-15T15:18:51.442Z,20.30
2022-10-15T15:23:56.096Z,20.40
2022-10-15T15:28:59.533Z,19.30
2022-10-15T15:34:02.849Z,18.30
2022-10-15T15:39:07.534Z,19.30
2022-10-15T15:44:13.114Z,19.20
2022-10-15T15:49:16.645Z,19.70
2022-10-15T15:54:21.338Z,19.20
2022-10-15T15:59:24.769Z,18.50
2022-10-15T16:04:28.114Z,17.90
2022-10-15T16:09:32.903Z,17.50
2022-10-15T16:14:36.166Z,17.00
2022-10-15T16:19:39.963Z,16.90
2022-10-15T16:24:44.867Z,16.80
2022-10-15T16:29:48.146Z,16.40
2022-10-15T16:34:51.747Z,16.20
2022-10-15T16:39:57.250Z,16.30
2022-10-15T16:45:00.886Z,16.40
2022-10-15T16:50:04.766Z,16.20
2022-10-15T16:55:10.292Z,16.20
2022-10-15T17:00:14.400Z,16.10
2022-10-15T17:05:17.807Z,15.90
2022-10-15T17:10:25.735Z,15.80
2022-10-15T17:15:29.050Z,15.90
2022-10-15T17:20:34.580Z,16.00
2022-10-15T17:25:39.253Z,16.20
2022-10-15T17:30:42.649Z,16.10
2022-10-15T17:35:45.967Z,17.20
2022-10-15T17:40:50.671Z,16.20
2022-10-15T17:46:01.080Z,16.20
2022-10-15T17:51:04.495Z,16.20
2022-10-15T17:56:16.513Z,16.00
2022-10-15T18:01:33.574Z,15.90
2022-10-15T18:06:44.871Z,15.80
2022-10-15T18:12:02.530Z,15.90
2022-10-15T18:17:07.426Z,15.80
2022-10-15T18:22:10.729Z,15.80
2022-10-15T18:27:15.384Z,15.80
2022-10-15T18:32:18.680Z,15.80
2022-10-15T18:37:22.324Z,15.80
2022-10-15T18:42:27.616Z,15.80
2022-10-15T18:47:31.204Z,15.90
2022-10-15T18:52:39.945Z,15.80
2022-10-15T18:57:45.287Z,15.80
2022-10-15T19:02:48.639Z,15.70
2022-10-15T19:07:55.555Z,15.70
2022-10-15T19:13:00.646Z,15.60
2022-10-15T19:18:11.529Z,15.50
2022-10-15T19:23:15.111Z,15.40
2022-10-15T19:28:19.839Z,15.50
2022-10-15T19:33:26.315Z,15.50
2022-10-15T19:38:31.451Z,15.40
2022-10-15T19:43:38.153Z,15.50
2022-10-15T19:48:42.333Z,15.30
2022-10-15T19:53:45.827Z,15.10
2022-10-15T19:58:55.688Z,15.00
2022-10-15T20:04:03.243Z,14.90
2022-10-15T20:09:09.966Z,14.80
2022-10-15T20:14:14.937Z,14.70
2022-10-15T20:19:20.767Z,14.60
2022-10-15T20:24:24.171Z,14.70
2022-10-15T20:29:29.120Z,14.50
2022-10-15T20:34:34.199Z,14.50
2022-10-15T20:39:37.586Z,14.50
2022-10-15T20:44:42.299Z,14.50
2022-10-15T20:49:50.255Z,14.50
2022-10-15T20:54:55.937Z,14.50
2022-10-15T21:00:00.850Z,14.50
2022-10-15T21:05:05.026Z,14.30
2022-10-15T21:10:08.862Z,14.30
2022-10-15T21:15:14.547Z,14.40
2022-10-15T21:20:18.662Z,14.50
2022-10-15T21:25:22.052Z,14.50
2022-10-15T21:30:26.863Z,14.50
2022-10-15T21:35:30.332Z,14.60
2022-10-15T21:40:33.854Z,14.60
2022-10-15T21:45:38.923Z,14.80
2022-10-15T21:50:47.406Z,14.80
2022-10-15T21:55:54.455Z,14.50
2022-10-15T22:00:59.474Z,14.50
2022-10-15T22:06:02.814Z,14.40
2022-10-15T22:11:11.838Z,14.50
2022-10-15T22:16:18.393Z,14.40
2022-10-15T22:21:23.216Z,14.40
2022-10-15T22:26:29.930Z,14.50
2022-10-15T22:31:35.071Z,14.50
2022-10-15T22:36:38.426Z,14.50
2022-10-15T22:41:44.647Z,14.50
2022-10-15T22:46:50.200Z,14.40
2022-10-15T22:51:53.612Z,14.60
2022-10-15T22:56:56.875Z,14.50
2022-10-15T23:02:04.229Z,14.50
2022-10-15T23:07:07.534Z,14.60
2022-10-15T23:12:10.837Z,14.60
2022-10-15T23:17:15.535Z,14.60
2022-10-15T23:22:18.815Z,14.60
2022-10-15T23:27:22.108Z,14.50
2022-10-15T23:32:26.771Z,14.50
2022-10-15T23:37:30.149Z,14.50
2022-10-15T23:42:33.436Z,14.50
2022-10-15T23:47:38.090Z,14.50
2022-10-15T23:52:41.369Z,14.40
2022-10-15T23:57:44.639Z,14.40
